»·PEaware :: AAL2530 KLAS-KLAX

AAL2530 :: KLAS-KLAX

FLIGHT INFORMATION

Flight Status: Arrived
Operator:
American Airlines
More flights by this operator :: More flights under this callsign
Pilot: Anonymous 18910 (18910)
Aircraft: AIRBUS A321
(A321)
More flights by this aircraft type
Origin: KLAS McCarran Intl
United States
Destination: KLAX Los Angeles Intl
United States
More flights between these airports :: More routes between these airports
Route: BOACH8 RIKII SHTNR ANJLL4
File this flight plan on PilotEdge
Remarks:
Altitude:
(Current/Filed)
30,000ft
Speed:
(Current/Filed)
425kts
Departed: 23-Nov-20 08:53 PM
Arrived: 23-Nov-20 09:47 PM
Distance/Time
Traveled:
205nm/0:53
Distance/Time
To Go:
Arrived

Flight Plot

Page will automatically refresh every two minutes.

Flight plan parsing failed; only flown route is shown


Map Options




Map Legend


Flown Route
Filed Route
Departure Airport
Arrival Airport
Navaid (VOR, NDB)
Fix

Horizontal Profiles

Position Reports

Time Latitude Longitude Heading Altitude Ground
Speed
23-Nov-20 19:36 36.080820 -115.134753 242 2187ft 0kts
23-Nov-20 19:37 36.080820 -115.134753 242 2187ft 0kts
23-Nov-20 19:38 36.080820 -115.134753 242 2187ft 0kts
23-Nov-20 19:39 36.080820 -115.134753 242 2187ft 0kts
23-Nov-20 19:40 36.080820 -115.134753 242 2187ft 0kts
23-Nov-20 19:41 36.080820 -115.134753 242 2187ft 0kts
23-Nov-20 19:42 36.080820 -115.134753 242 2187ft 0kts
23-Nov-20 19:43 36.080820 -115.134753 242 2187ft 0kts
23-Nov-20 19:44 36.080820 -115.134753 242 2187ft 0kts
23-Nov-20 19:45 36.080820 -115.134753 242 2187ft 0kts
23-Nov-20 19:46 36.080820 -115.134753 242 2187ft 0kts
23-Nov-20 19:47 36.080820 -115.134753 242 2187ft 0kts
23-Nov-20 19:48 36.080820 -115.134753 242 2187ft 0kts
23-Nov-20 19:49 36.080820 -115.134753 242 2187ft 0kts
23-Nov-20 19:50 36.080820 -115.134753 242 2187ft 0kts
23-Nov-20 19:51 36.080820 -115.134753 242 2187ft 0kts
23-Nov-20 19:52 36.080820 -115.134753 242 2187ft 0kts
23-Nov-20 19:53 36.080820 -115.134753 242 2187ft 0kts
23-Nov-20 19:54 36.080820 -115.134753 242 2187ft 0kts
23-Nov-20 19:55 36.080820 -115.134753 242 2187ft 0kts
23-Nov-20 19:56 36.080820 -115.134753 242 2187ft 0kts
23-Nov-20 19:57 36.080820 -115.134753 242 2187ft 0kts
23-Nov-20 19:58 36.080820 -115.134753 242 2187ft 0kts
23-Nov-20 19:59 36.080820 -115.134753 242 2187ft 0kts
23-Nov-20 20:00 36.080820 -115.134753 242 2187ft 0kts
23-Nov-20 20:01 36.080820 -115.134753 242 2187ft 0kts
23-Nov-20 20:02 36.080820 -115.134753 242 2187ft 0kts
23-Nov-20 20:03 36.080820 -115.134753 242 2187ft 0kts
23-Nov-20 20:04 36.080820 -115.134753 242 2187ft 0kts
23-Nov-20 20:05 36.080820 -115.134753 242 2187ft 0kts
23-Nov-20 20:06 36.080820 -115.134753 242 2187ft 0kts
23-Nov-20 20:07 36.080820 -115.134753 242 2187ft 0kts
23-Nov-20 20:08 36.080820 -115.134753 242 2187ft 0kts
23-Nov-20 20:09 36.080820 -115.134753 242 2187ft 0kts
23-Nov-20 20:10 36.080820 -115.134753 242 2187ft 0kts
23-Nov-20 20:11 36.080820 -115.134753 242 2187ft 0kts
23-Nov-20 20:12 36.080820 -115.134753 242 2187ft 0kts
23-Nov-20 20:13 36.080820 -115.134753 242 2187ft 0kts
23-Nov-20 20:14 36.080820 -115.134753 242 2187ft 0kts
23-Nov-20 20:15 36.080820 -115.134753 242 2187ft 0kts
23-Nov-20 20:16 36.080820 -115.134753 242 2187ft 0kts
23-Nov-20 20:17 36.080820 -115.134753 242 2187ft 0kts
23-Nov-20 20:18 36.080820 -115.134753 242 2187ft 0kts
23-Nov-20 20:19 36.080820 -115.134753 242 2187ft 0kts
23-Nov-20 20:20 36.080820 -115.134753 242 2187ft 0kts
23-Nov-20 20:21 36.080820 -115.134753 242 2187ft 0kts
23-Nov-20 20:22 36.080820 -115.134753 242 2187ft 0kts
23-Nov-20 20:23 36.080820 -115.134753 242 2187ft 0kts
23-Nov-20 20:24 36.080820 -115.134753 242 2187ft 0kts
23-Nov-20 20:25 36.080820 -115.134753 242 2187ft 0kts
23-Nov-20 20:26 36.080820 -115.134753 242 2187ft 0kts
23-Nov-20 20:27 36.080820 -115.134753 242 2187ft 0kts
23-Nov-20 20:28 36.080820 -115.134753 242 2187ft 0kts
23-Nov-20 20:29 36.080820 -115.134753 242 2187ft 0kts
23-Nov-20 20:30 36.080820 -115.134753 242 2187ft 0kts
23-Nov-20 20:31 36.080820 -115.134753 242 2187ft 0kts
23-Nov-20 20:32 36.080820 -115.134752 247 2187ft 0kts
23-Nov-20 20:33 36.081126 -115.134327 195 2187ft 2kts
23-Nov-20 20:34 36.081553 -115.134492 134 2187ft 0kts
23-Nov-20 20:35 36.081554 -115.134493 134 2187ft 0kts
23-Nov-20 20:36 36.081554 -115.134493 134 2187ft 0kts
23-Nov-20 20:37 36.081554 -115.134493 134 2187ft 0kts
23-Nov-20 20:38 36.081554 -115.134493 134 2187ft 0kts
23-Nov-20 20:39 36.081554 -115.134493 134 2187ft 0kts
23-Nov-20 20:40 36.081301 -115.134179 135 2187ft 2kts
23-Nov-20 20:42 36.080726 -115.133748 174 2187ft 7kts
23-Nov-20 20:43 36.079470 -115.133731 180 2187ft 0kts
23-Nov-20 20:44 36.079092 -115.133733 180 2187ft 8kts
23-Nov-20 20:45 36.078367 -115.130665 88 2187ft 9kts
23-Nov-20 20:46 36.078296 -115.126316 89 2187ft 14kts
23-Nov-20 20:47 36.078320 -115.123083 90 2187ft 0kts
23-Nov-20 20:48 36.078258 -115.122630 113 2187ft 5kts
23-Nov-20 20:49 36.077666 -115.121605 131 2187ft 0kts
23-Nov-20 20:50 36.077500 -115.121395 144 2187ft 3kts
23-Nov-20 20:51 36.077472 -115.121375 151 2187ft 0kts
23-Nov-20 20:52 36.076464 -115.121548 269 2187ft 0kts
23-Nov-20 20:53 36.076457 -115.122807 269 2187ft 46kts
23-Nov-20 20:54 36.076524 -115.174725 269 3482ft 190kts
23-Nov-20 20:55 36.072180 -115.247308 236 5081ft 246kts
23-Nov-20 20:56 36.004680 -115.284552 204 6935ft 277kts
23-Nov-20 20:57 35.928956 -115.307043 185 9621ft 289kts
23-Nov-20 20:57 35.859042 -115.313760 180 11050ft 325kts
23-Nov-20 20:59 35.743021 -115.302162 174 12521ft 388kts
23-Nov-20 20:59 35.652374 -115.295661 181 14569ft 398kts
23-Nov-20 21:01 35.521409 -115.303172 190 17094ft 413kts
23-Nov-20 21:01 35.434103 -115.352743 211 18746ft 423kts
23-Nov-20 21:02 35.332095 -115.427794 210 20549ft 434kts
23-Nov-20 21:04 35.207958 -115.517770 210 22269ft 453kts
23-Nov-20 21:04 35.121126 -115.589269 223 23617ft 459kts
23-Nov-20 21:05 35.039543 -115.710744 232 25019ft 469kts
23-Nov-20 21:06 34.959184 -115.837173 231 26296ft 477kts
23-Nov-20 21:07 34.877674 -115.963845 231 27987ft 472kts
23-Nov-20 21:08 34.797161 -116.087940 231 29554ft 466kts
23-Nov-20 21:09 34.717462 -116.210911 231 30192ft 463kts
23-Nov-20 21:10 34.638369 -116.332602 231 30222ft 444kts
23-Nov-20 21:11 34.561675 -116.450213 231 30233ft 445kts
23-Nov-20 21:12 34.519728 -116.587004 275 30234ft 445kts
23-Nov-20 21:13 34.567085 -116.724087 291 30223ft 445kts
23-Nov-20 21:14 34.559756 -116.869094 240 30234ft 445kts
23-Nov-20 21:15 34.461841 -116.952668 188 30227ft 446kts
23-Nov-20 21:16 34.344860 -116.918061 152 30114ft 434kts
23-Nov-20 21:17 34.238886 -116.848863 151 27362ft 438kts
23-Nov-20 21:18 34.124756 -116.828991 212 24306ft 446kts
23-Nov-20 21:19 34.093849 -116.961035 296 24125ft 450kts
23-Nov-20 21:20 34.196637 -117.038483 326 24118ft 448kts
23-Nov-20 21:21 34.236297 -117.162638 253 21503ft 415kts
23-Nov-20 21:22 34.152365 -117.256905 217 18291ft 428kts
23-Nov-20 21:23 34.104462 -117.372332 252 15308ft 368kts
23-Nov-20 21:24 34.075543 -117.490275 255 13619ft 349kts
23-Nov-20 21:25 34.058828 -117.597121 260 12068ft 299kts
23-Nov-20 21:26 34.044498 -117.694822 259 10889ft 292kts
23-Nov-20 21:27 34.030428 -117.789709 259 8147ft 288kts
23-Nov-20 21:28 34.016223 -117.884770 259 5077ft 288kts
23-Nov-20 21:29 34.003050 -117.972377 259 3943ft 230kts
23-Nov-20 21:30 33.991261 -118.050650 259 4046ft 238kts
23-Nov-20 21:31 33.980709 -118.129771 262 4038ft 239kts
23-Nov-20 21:32 33.972018 -118.209348 262 3264ft 239kts
23-Nov-20 21:33 33.964028 -118.286094 262 2027ft 214kts
23-Nov-20 21:34 33.957605 -118.348316 262 1022ft 163kts
23-Nov-20 21:35 33.952331 -118.399950 262 384ft 161kts
23-Nov-20 21:36 33.947080 -118.450166 260 2910ft 142kts
23-Nov-20 21:37 33.941136 -118.501305 267 2367ft 167kts
23-Nov-20 21:38 33.947196 -118.552443 336 2052ft 163kts
23-Nov-20 21:39 33.983776 -118.519748 52 2526ft 185kts
23-Nov-20 21:40 34.008507 -118.467010 81 2547ft 185kts
23-Nov-20 21:41 34.016220 -118.405905 81 2536ft 184kts
23-Nov-20 21:42 34.021335 -118.345908 84 2191ft 172kts
23-Nov-20 21:43 33.989745 -118.314545 175 1761ft 177kts
23-Nov-20 21:44 33.957953 -118.340398 264 1096ft 154kts
23-Nov-20 21:45 33.953165 -118.391379 262 343ft 152kts
23-Nov-20 21:46 33.949862 -118.423654 257 125ft 33kts
23-Nov-20 21:47 33.948344 -118.426973 221 121ft 5kts
23-Nov-20 21:48 33.946648 -118.427725 155 118ft 8kts
23-Nov-20 21:49 33.946982 -118.420853 83 123ft 24kts
23-Nov-20 21:50 33.947564 -118.415197 82 128ft 11kts
23-Nov-20 21:51 33.947163 -118.411897 76 129ft 11kts
23-Nov-20 21:52 33.946411 -118.408838 110 129ft 7kts
23-Nov-20 21:53 33.946366 -118.408340 89 129ft 0kts
23-Nov-20 21:54 33.946366 -118.408340 89 129ft 0kts
23-Nov-20 21:55 33.946366 -118.408340 89 129ft 0kts

Navigation Log

Ident Type
Flight plan parsing failed, navigation log unavailable